Weather at Morón Airport

Public forecast

Using degrees Celsius for public forecast. Weather courtesy of forecast.io.

Current aviation weather report (METAR) for Morón Airport

Report is more than 6 hours old.

Retrieved 2022/05/12 06:00 UTC (5 months ago):

SADM 120600Z 18002KT CAVOK 09/07 Q1021

Closest aviation forecast (TAF) to Morón Airport

Forecast is more than 12 hours old.

Closest forecast is El Palomar Airport, 4.3 nm (7.9 km) NNE. Retrieved 2022/09/17 18:03 UTC (13 days ago):

TAF TAF SADP 171700Z 1718/1818 05010G25KT CAVOK TX25/1718Z TN15/1810Z BECMG 1807/1810 05008KT BECMG 1811/1814 05010G20KT